Terminal Aerodrome Forecast
Issued by NWS Austin/San Antonio, TX

Current Version | Previous Version | Text Only | Print | Product List | Glossary On
Versions: 1 2 3 4 5 6 7 8 9 10 11 12 13 14 15 16 17 18 19 20 21 22 23 24 25 26 27 28 29 30 31 32 33 34
400
FTUS44 KEWX 061217 AAA
TAFDRT
TAF AMD
KDRT 061217Z 0612/0712 VRB03KT 1SM BR VV002
      TEMPO 0612/0614 1/4SM FG VV001
     FM061500 32008KT P6SM SKC
     FM070100 32005KT P6SM BKN015
     FM071000 06004KT 5SM BR BKN012=

USA.gov is the U.S. government's official web portal to all federal, state and local government web resources and services.